CONTEST STATUS - Updated: SAT ... 17-FEB-18 @ 5:10 PM EST

Winter '17 / '18 - Snowfall Forecast Contests
19th Annual 'Regular Season'
- Interim Standings ... as of Snow Storm #4 here

- Snow Storm #5: 17-FEB-18
Deadline for entries has passed.
The Forecasts! here

- Snow Storm #4: 07-FEB-18
FINAL Results here

- Snow Storm #3: 17-JAN-18
FINAL Results here

17th Annual 'Season-total'
Deadline for entries has passed
Forecasters' summary here

----------------------------------------------------
Winter '16 / '17 - Snowfall Forecast Contests
----------------------------------------------------
18th Annual 'Regular Season'
FINAL results here

---
16th Annual 'Season-total'
FINAL results here

Friday, February 9, 2018

Winter '17 / '18 - Snow Storm #4: Preliminary STP Verifications

Table of preliminary storm-total snowfall by station for WED and THU from CDUS41 (CLI) ... CXUS51 (CF6) and ... SAUS41 (METAR) bulletins.

Exceptions:
None

HYA - Trace
METAR KHYA 080656Z AUTO 33012G19KT 10SM BKN021 OVC085 02/M01 A2996 RMK AO2 RAE03UPB16E19SNB03E16

SLR not available for many stations with measureable snowfall b/c liquid and / or freezing precipitation also occurred during the verification period.

9 minutes heavy sleet event @ ALB
METAR KALB 072109Z 35009KT 1SM R01/6000VP6000FT +PL BR BKN007 OVC010 M06/M08 A2993

---
Stations observing at least:
Trace - 19 (70%)
4" - 7 (37%)
6" - 5 (27%)
8" - 0

Melt-water
BGR - 0.53"
BGM - 0.52"
CAR - 0.52"

New daily records:
None

Surface analysis:  18z ... 07-FEB-18
  
---
Please report errors in Comments along with a link to the correct data.
FINAL Results post expected ~11 PM EST ... SAT ... 10-FEB-18

No comments: